Time;durP1;ratioP1;P1;durP2;ratioP2;P2;SDS_P1;SDS_P2;PMS_P1;PMS_P2;Temp;Humidity;BMP_temperature;BMP_pressure;BME280_temperature;BME280_humidity;BME280_pressure;Samples;Min_cycle;Max_cycle;Signal;HPM_P1;HPM_P2
2023/06/30 00:01:17;;;;;;;10.70;3.47;;;18.00;99.90;;;;;;4979708;28;20046;-83
2023/06/30 00:03:45;;;;;;;10.52;3.22;;;17.90;99.90;;;;;;4979803;28;20042;-81
2023/06/30 00:06:12;;;;;;;9.98;3.30;;;17.90;99.90;;;;;;4978752;28;20093;-82
2023/06/30 00:08:38;;;;;;;8.88;3.05;;;18.00;99.90;;;;;;4979311;28;20477;-82
2023/06/30 00:11:05;;;;;;;6.57;3.30;;;18.00;99.90;;;;;;4978872;28;20509;-82
2023/06/30 00:13:32;;;;;;;7.57;3.33;;;18.00;99.90;;;;;;4979770;28;20093;-81
2023/06/30 00:15:59;;;;;;;9.15;3.00;;;17.90;99.90;;;;;;4962437;28;20046;-80
2023/06/30 00:18:25;;;;;;;7.88;2.78;;;17.80;99.90;;;;;;4978594;28;20138;-82
2023/06/30 00:20:54;;;;;;;7.47;3.17;;;17.80;99.90;;;;;;4962421;28;20039;-80
2023/06/30 00:23:21;;;;;;;6.32;2.75;;;17.70;99.90;;;;;;4979034;28;20331;-81
2023/06/30 00:25:48;;;;;;;11.48;3.60;;;17.70;99.90;;;;;;4978347;28;20061;-81
2023/06/30 00:28:15;;;;;;;8.02;3.42;;;17.60;99.90;;;;;;4962428;28;20043;-82
2023/06/30 00:30:42;;;;;;;7.30;2.90;;;17.50;99.90;;;;;;4961963;28;20055;-80
2023/06/30 00:33:09;;;;;;;6.00;2.70;;;17.50;99.90;;;;;;4962033;28;20109;-80
2023/06/30 00:35:37;;;;;;;8.20;2.63;;;17.40;99.90;;;;;;4978861;28;20450;-82
2023/06/30 00:38:03;;;;;;;6.53;2.83;;;17.30;99.90;;;;;;4960777;28;20038;-80
2023/06/30 00:40:30;;;;;;;6.15;2.90;;;17.20;99.90;;;;;;4961788;28;20082;-79
2023/06/30 00:43:00;;;;;;;7.97;2.75;;;17.20;99.90;;;;;;4961940;28;20066;-80
2023/06/30 00:45:27;;;;;;;8.48;2.78;;;17.10;99.90;;;;;;4960993;28;20394;-81
2023/06/30 00:47:54;;;;;;;8.73;2.90;;;17.00;99.90;;;;;;4978929;28;20121;-78
2023/06/30 00:50:21;;;;;;;7.72;2.95;;;16.90;99.90;;;;;;4978598;28;20043;-79
2023/06/30 00:52:50;;;;;;;8.20;3.17;;;16.80;99.90;;;;;;4961191;28;20145;-80
2023/06/30 00:55:17;;;;;;;7.30;3.15;;;16.80;99.90;;;;;;4961583;28;20070;-80
2023/06/30 00:57:44;;;;;;;7.95;4.05;;;16.70;99.90;;;;;;4960958;28;20073;-80
2023/06/30 01:00:11;;;;;;;8.15;3.15;;;16.60;99.90;;;;;;4961682;28;20047;-81
2023/06/30 01:02:37;;;;;;;7.63;3.40;;;16.60;99.90;;;;;;4978418;28;20073;-80
2023/06/30 01:05:06;;;;;;;7.25;3.30;;;16.50;99.90;;;;;;4977412;28;20077;-80
2023/06/30 01:07:33;;;;;;;9.50;3.65;;;16.40;99.90;;;;;;4961697;28;20062;-79
2023/06/30 01:10:00;;;;;;;9.95;3.45;;;16.40;99.90;;;;;;4972925;28;20419;-80
2023/06/30 01:12:28;;;;;;;7.55;3.28;;;16.30;99.90;;;;;;4975763;28;20461;-81
2023/06/30 01:14:55;;;;;;;6.25;2.65;;;16.30;99.90;;;;;;4977580;28;20367;-80
2023/06/30 01:17:24;;;;;;;6.35;2.78;;;16.20;99.90;;;;;;4977867;28;20074;-79
2023/06/30 01:19:53;;;;;;;11.25;3.10;;;16.20;99.90;;;;;;4977755;28;20134;-78
2023/06/30 01:22:20;;;;;;;10.23;3.22;;;16.10;99.90;;;;;;4978552;28;20050;-82
2023/06/30 01:24:49;;;;;;;7.68;3.08;;;16.10;99.90;;;;;;4977315;28;20454;-81
2023/06/30 01:27:15;;;;;;;8.10;2.92;;;16.00;99.90;;;;;;4978086;28;20532;-80
2023/06/30 01:29:42;;;;;;;10.27;3.25;;;15.90;99.90;;;;;;4977128;28;20552;-79
2023/06/30 01:32:09;;;;;;;7.47;2.92;;;15.80;99.90;;;;;;4977533;28;20068;-80
2023/06/30 01:37:46;;;;;;;7.97;2.80;;;15.80;99.90;;;;;;4976166;28;20050;-81
2023/06/30 01:40:12;;;;;;;7.20;2.65;;;15.70;99.90;;;;;;4976837;28;20043;-79
2023/06/30 01:42:39;;;;;;;7.95;3.00;;;15.70;99.90;;;;;;4977105;28;20061;-83
2023/06/30 01:45:07;;;;;;;9.93;4.05;;;15.60;99.90;;;;;;4981076;28;20073;-81
2023/06/30 01:47:34;;;;;;;8.75;3.20;;;15.60;99.90;;;;;;5012932;28;20077;-82
2023/06/30 01:50:00;;;;;;;6.53;2.50;;;15.50;99.90;;;;;;4997110;28;20052;-80
2023/06/30 01:52:29;;;;;;;8.18;2.88;;;15.50;99.90;;;;;;4995568;28;20381;-80
2023/06/30 01:54:58;;;;;;;7.05;2.90;;;15.40;99.90;;;;;;5012302;28;20133;-82
2023/06/30 01:57:24;;;;;;;8.32;2.78;;;15.40;99.90;;;;;;5011949;28;20042;-81
2023/06/30 01:59:51;;;;;;;9.38;2.83;;;15.40;99.90;;;;;;5012501;28;20418;-82
2023/06/30 02:02:18;;;;;;;7.00;2.70;;;15.30;99.90;;;;;;5012468;28;20057;-82
2023/06/30 02:04:46;;;;;;;6.25;2.72;;;15.20;99.90;;;;;;5011176;28;20462;-82
2023/06/30 02:07:14;;;;;;;7.95;2.83;;;15.20;99.90;;;;;;5011906;28;20537;-80
2023/06/30 02:09:41;;;;;;;7.90;3.03;;;15.10;99.90;;;;;;4996873;28;20046;-81
2023/06/30 02:12:14;;;;;;;7.68;2.90;;;15.00;99.90;;;;;;4979261;28;20054;-81
2023/06/30 02:14:43;;;;;;;8.20;2.83;;;15.00;99.90;;;;;;4979500;28;20541;-82
2023/06/30 02:17:10;;;;;;;9.75;3.22;;;14.90;99.90;;;;;;4994877;28;20057;-79
2023/06/30 02:19:37;;;;;;;7.43;2.88;;;14.80;99.90;;;;;;4996073;28;20450;-81
2023/06/30 02:22:03;;;;;;;7.78;3.00;;;14.80;99.90;;;;;;4979555;28;20050;-82
2023/06/30 02:24:30;;;;;;;7.30;2.58;;;14.80;99.90;;;;;;4995057;28;20031;-82
2023/06/30 02:26:57;;;;;;;9.85;3.08;;;14.80;99.90;;;;;;4996373;28;20038;-81
2023/06/30 02:29:24;;;;;;;7.45;2.63;;;14.80;99.90;;;;;;4996592;28;20047;-80
2023/06/30 02:31:50;;;;;;;8.15;3.15;;;14.70;99.90;;;;;;4994701;28;20096;-82
2023/06/30 02:34:18;;;;;;;9.70;2.83;;;14.70;99.90;;;;;;4979070;28;20046;-82
2023/06/30 02:36:48;;;;;;;6.93;2.92;;;14.60;99.90;;;;;;4979062;28;20100;-79
2023/06/30 02:39:16;;;;;;;5.93;2.60;;;14.60;99.90;;;;;;4995416;28;20066;-79
2023/06/30 02:41:43;;;;;;;6.57;2.53;;;14.50;99.90;;;;;;4979090;28;20053;-81
2023/06/30 02:44:10;;;;;;;7.65;2.75;;;14.50;99.90;;;;;;4978117;28;20046;-80
2023/06/30 02:46:37;;;;;;;6.88;2.83;;;14.40;99.90;;;;;;4978871;28;20038;-79
2023/06/30 02:49:04;;;;;;;7.90;2.70;;;14.40;99.90;;;;;;4979116;28;20145;-81
2023/06/30 02:51:31;;;;;;;5.80;2.40;;;14.40;99.90;;;;;;4994701;28;20101;-82
2023/06/30 02:53:57;;;;;;;5.88;2.40;;;14.30;99.90;;;;;;4995603;28;20066;-81
2023/06/30 02:56:26;;;;;;;7.18;2.90;;;14.30;99.90;;;;;;4978452;28;20508;-79
2023/06/30 02:58:54;;;;;;;6.97;2.70;;;14.20;99.90;;;;;;4977727;28;20137;-80
2023/06/30 03:01:21;;;;;;;10.48;2.72;;;14.20;99.90;;;;;;4978707;28;20034;-81
2023/06/30 03:03:49;;;;;;;7.50;2.85;;;14.20;99.90;;;;;;4994418;28;20042;-81
2023/06/30 03:06:17;;;;;;;6.03;2.55;;;14.10;99.90;;;;;;4978066;28;20468;-79
2023/06/30 03:08:44;;;;;;;13.52;2.92;;;14.00;99.90;;;;;;4980234;28;20062;-82
2023/06/30 03:11:11;;;;;;;6.25;2.42;;;13.90;99.90;;;;;;5010114;28;20112;-82
2023/06/30 03:13:38;;;;;;;7.97;2.97;;;13.80;99.90;;;;;;5011146;28;20057;-79
2023/06/30 03:16:05;;;;;;;9.85;2.22;;;13.80;99.90;;;;;;5011019;28;20092;-80
2023/06/30 03:18:34;;;;;;;8.63;2.40;;;13.80;99.90;;;;;;5009965;28;20042;-80
2023/06/30 03:21:02;;;;;;;6.55;2.47;;;13.80;99.90;;;;;;5010890;28;20382;-81
2023/06/30 03:23:28;;;;;;;7.10;2.40;;;13.70;99.90;;;;;;5011165;28;20533;-82
2023/06/30 03:25:57;;;;;;;6.30;2.25;;;13.70;99.90;;;;;;4994649;28;20039;-82
2023/06/30 03:28:24;;;;;;;7.60;2.22;;;13.70;99.90;;;;;;4995789;28;20121;-82
2023/06/30 03:30:52;;;;;;;7.13;2.03;;;13.60;99.90;;;;;;4995027;28;20046;-79
2023/06/30 03:33:21;;;;;;;9.93;2.10;;;13.60;99.90;;;;;;5010919;28;20061;-78
2023/06/30 03:35:49;;;;;;;5.00;1.90;;;13.60;99.90;;;;;;4995344;28;20093;-82
2023/06/30 03:38:16;;;;;;;6.82;2.20;;;13.60;99.90;;;;;;5010305;28;20046;-81
2023/06/30 03:40:43;;;;;;;5.85;2.00;;;13.50;99.90;;;;;;4994340;28;20120;-81
2023/06/30 03:43:10;;;;;;;5.88;2.22;;;13.50;99.90;;;;;;5010852;28;20034;-80
2023/06/30 03:45:42;;;;;;;4.00;1.80;;;13.50;99.90;;;;;;5009731;28;20378;-81
2023/06/30 03:48:09;;;;;;;5.60;1.80;;;13.40;99.90;;;;;;5010765;28;20116;-82
2023/06/30 03:50:36;;;;;;;8.02;2.10;;;13.40;99.90;;;;;;5010838;28;20053;-80
2023/06/30 03:53:02;;;;;;;6.50;2.20;;;13.40;99.90;;;;;;5010382;28;20108;-81
2023/06/30 03:55:29;;;;;;;8.48;2.03;;;13.40;99.90;;;;;;4995227;28;20116;-81
2023/06/30 03:57:56;;;;;;;5.00;1.85;;;13.30;99.90;;;;;;5010129;28;20442;-80
2023/06/30 04:00:23;;;;;;;6.15;1.92;;;13.30;99.90;;;;;;5010720;28;20462;-79
2023/06/30 04:02:49;;;;;;;8.05;1.98;;;13.30;99.90;;;;;;4994805;28;20039;-80
2023/06/30 04:05:16;;;;;;;4.00;1.60;;;13.30;99.90;;;;;;4993836;28;20038;-81
2023/06/30 04:07:43;;;;;;;7.03;1.90;;;13.30;99.90;;;;;;4995023;28;20073;-79
2023/06/30 04:10:10;;;;;;;11.38;1.95;;;13.30;99.90;;;;;;4994643;28;20446;-79
2023/06/30 04:12:37;;;;;;;7.72;1.73;;;13.30;99.90;;;;;;4994235;28;20054;-82
2023/06/30 04:17:49;;;;;;;6.70;1.88;;;13.30;99.90;;;;;;4993431;28;20378;-81
2023/06/30 04:20:16;;;;;;;6.10;1.40;;;13.30;99.90;;;;;;4995056;28;20448;-81
2023/06/30 04:22:43;;;;;;;8.88;1.85;;;13.30;99.90;;;;;;4994234;28;20117;-80
2023/06/30 04:25:11;;;;;;;6.35;1.55;;;13.40;99.90;;;;;;4994206;28;20109;-82
2023/06/30 04:27:37;;;;;;;5.32;1.60;;;13.40;99.90;;;;;;4995016;28;20436;-80
2023/06/30 04:30:04;;;;;;;5.20;1.60;;;13.40;99.90;;;;;;4977368;28;20448;-79
2023/06/30 04:32:31;;;;;;;3.80;1.40;;;13.50;99.90;;;;;;4994281;28;20054;-80
2023/06/30 04:34:58;;;;;;;4.95;1.70;;;13.50;99.90;;;;;;4995276;28;20097;-81
2023/06/30 04:37:28;;;;;;;4.97;1.55;;;13.50;99.90;;;;;;4993851;28;20129;-78
2023/06/30 04:39:55;;;;;;;6.03;1.63;;;13.50;99.90;;;;;;4996842;28;20089;-81
2023/06/30 04:42:22;;;;;;;6.10;1.63;;;13.50;99.90;;;;;;4998558;28;20042;-80
2023/06/30 04:44:49;;;;;;;3.95;1.40;;;13.60;99.90;;;;;;4980659;28;20385;-82
2023/06/30 04:47:16;;;;;;;5.90;1.65;;;13.60;99.90;;;;;;4997523;28;20137;-79
2023/06/30 04:49:43;;;;;;;5.00;1.50;;;13.60;99.90;;;;;;4998425;28;20097;-83
2023/06/30 04:52:09;;;;;;;4.68;1.80;;;13.70;99.90;;;;;;4996935;28;20085;-82
2023/06/30 04:54:36;;;;;;;5.65;1.55;;;13.70;99.90;;;;;;4997062;28;20065;-81
2023/06/30 04:57:03;;;;;;;6.35;1.70;;;13.80;99.90;;;;;;4997604;28;20437;-81
2023/06/30 04:59:29;;;;;;;5.50;1.60;;;13.80;99.90;;;;;;4980057;28;20101;-79
2023/06/30 05:01:56;;;;;;;5.45;1.48;;;13.90;99.90;;;;;;4997402;28;20048;-80
2023/06/30 05:04:23;;;;;;;5.93;1.63;;;13.90;99.90;;;;;;4997074;28;20109;-80
2023/06/30 05:09:35;;;;;;;8.77;1.50;;;14.00;99.90;;;;;;4997820;28;20054;-80
2023/06/30 05:12:04;;;;;;;5.95;1.50;;;14.00;99.90;;;;;;4997501;28;20055;-82
2023/06/30 05:14:30;;;;;;;3.92;1.52;;;14.10;99.90;;;;;;4997738;28;20046;-80
2023/06/30 05:16:57;;;;;;;7.95;1.52;;;14.20;99.90;;;;;;4997726;28;20112;-80
2023/06/30 05:19:24;;;;;;;3.25;1.67;;;14.20;99.90;;;;;;4997028;28;20350;-81
2023/06/30 05:21:51;;;;;;;5.13;1.58;;;14.20;99.90;;;;;;4980835;28;20160;-79
2023/06/30 05:24:18;;;;;;;5.72;1.77;;;14.30;99.90;;;;;;4995835;28;20125;-80
2023/06/30 05:26:45;;;;;;;7.53;1.77;;;14.30;99.90;;;;;;4997902;28;20516;-81
2023/06/30 05:29:11;;;;;;;4.65;1.67;;;14.30;99.90;;;;;;4980650;28;20152;-79
2023/06/30 05:31:38;;;;;;;5.38;1.50;;;14.30;99.90;;;;;;4979696;28;20054;-81
2023/06/30 05:34:05;;;;;;;7.10;1.63;;;14.30;99.90;;;;;;4980066;28;20038;-81
2023/06/30 05:36:32;;;;;;;4.90;1.73;;;14.40;99.90;;;;;;4980276;28;20385;-81
2023/06/30 05:39:01;;;;;;;8.60;1.98;;;14.50;99.90;;;;;;4996496;28;20516;-81
2023/06/30 05:41:28;;;;;;;6.22;1.70;;;14.50;99.90;;;;;;4996410;28;20050;-81
2023/06/30 05:43:55;;;;;;;7.38;1.80;;;14.50;99.90;;;;;;4995828;28;20492;-81
2023/06/30 05:46:22;;;;;;;8.32;1.63;;;14.40;99.90;;;;;;4996317;28;20081;-79
2023/06/30 05:48:49;;;;;;;6.35;1.70;;;14.50;99.90;;;;;;4997264;28;20042;-79
2023/06/30 05:51:15;;;;;;;7.03;1.73;;;14.50;99.90;;;;;;4995260;28;20049;-81
2023/06/30 05:53:42;;;;;;;6.28;1.50;;;14.50;99.90;;;;;;4996886;28;20073;-79
2023/06/30 05:56:09;;;;;;;9.07;1.73;;;14.50;99.90;;;;;;4996910;28;20458;-80
2023/06/30 05:58:37;;;;;;;6.95;1.67;;;14.60;99.90;;;;;;4996505;28;20077;-80
2023/06/30 06:01:04;;;;;;;6.30;1.60;;;14.70;99.90;;;;;;4996773;28;20046;-80
2023/06/30 06:03:31;;;;;;;11.07;1.70;;;14.80;99.90;;;;;;4996651;28;20089;-82
2023/06/30 06:05:58;;;;;;;9.60;1.55;;;14.90;99.90;;;;;;4996108;28;20065;-79
2023/06/30 06:08:25;;;;;;;5.55;1.50;;;15.00;99.90;;;;;;4996997;28;20041;-80
2023/06/30 06:10:52;;;;;;;5.15;1.67;;;15.20;99.90;;;;;;4996037;28;20484;-82
2023/06/30 06:13:19;;;;;;;7.55;1.98;;;15.20;99.90;;;;;;4996238;28;20490;-82
2023/06/30 06:15:46;;;;;;;3.80;1.40;;;15.40;99.90;;;;;;4996757;28;20133;-80
2023/06/30 06:18:12;;;;;;;4.75;1.58;;;15.50;99.90;;;;;;4995954;28;20046;-80
2023/06/30 06:20:40;;;;;;;5.88;1.58;;;15.60;99.90;;;;;;4996415;28;20045;-81
2023/06/30 06:23:07;;;;;;;5.20;1.42;;;15.80;99.90;;;;;;4995631;28;20081;-81
2023/06/30 06:25:34;;;;;;;7.18;2.08;;;16.00;99.90;;;;;;4995346;28;20460;-80
2023/06/30 06:28:01;;;;;;;10.43;1.50;;;16.10;99.90;;;;;;4996585;28;20121;-80
2023/06/30 06:30:28;;;;;;;3.38;1.50;;;16.00;99.90;;;;;;4996566;28;20499;-80
2023/06/30 06:32:55;;;;;;;6.22;1.80;;;16.10;99.90;;;;;;4994788;28;20050;-81
2023/06/30 06:35:22;;;;;;;4.07;1.50;;;16.20;99.90;;;;;;4996148;28;20042;-81
2023/06/30 06:37:48;;;;;;;6.90;1.50;;;16.30;99.90;;;;;;4994638;28;20137;-80
2023/06/30 06:40:15;;;;;;;5.15;1.40;;;16.50;99.90;;;;;;4996113;28;20129;-81
2023/06/30 06:42:42;;;;;;;6.00;1.40;;;16.50;99.90;;;;;;4996125;28;20080;-79
2023/06/30 06:45:09;;;;;;;6.22;1.50;;;16.50;99.90;;;;;;4978117;28;20046;-82
2023/06/30 06:47:35;;;;;;;5.47;1.50;;;16.40;99.90;;;;;;4995878;28;20042;-79
2023/06/30 06:50:03;;;;;;;4.47;1.48;;;16.40;99.90;;;;;;4995544;28;20045;-80
2023/06/30 06:52:29;;;;;;;8.90;1.60;;;16.60;99.90;;;;;;4995294;28;20070;-82
2023/06/30 06:57:26;;;;;;;5.57;1.40;;;17.00;99.90;;;;;;4995259;28;20050;-81
2023/06/30 06:59:53;;;;;;;5.20;1.30;;;17.20;99.90;;;;;;4978485;28;20252;-81
2023/06/30 07:02:19;;;;;;;8.25;1.52;;;17.20;99.90;;;;;;4995510;28;20038;-82
2023/06/30 07:07:32;;;;;;;3.88;1.50;;;17.30;99.90;;;;;;4995902;28;20061;-82
2023/06/30 07:09:59;;;;;;;5.68;1.50;;;17.50;99.90;;;;;;4995828;28;20125;-81
2023/06/30 07:12:26;;;;;;;4.00;1.30;;;17.60;99.90;;;;;;4977876;28;20661;-79
2023/06/30 07:17:38;;;;;;;6.93;1.60;;;18.00;99.90;;;;;;4994835;28;20112;-80
2023/06/30 07:20:05;;;;;;;4.53;1.35;;;18.10;99.90;;;;;;4995856;28;20043;-82
2023/06/30 07:22:33;;;;;;;5.55;1.20;;;18.10;99.90;;;;;;4995611;28;20038;-80
2023/06/30 07:25:03;;;;;;;7.75;1.50;;;18.20;99.90;;;;;;4993807;28;20081;-81
2023/06/30 07:27:30;;;;;;;8.15;1.40;;;18.20;99.90;;;;;;4995866;28;20043;-80
2023/06/30 07:29:56;;;;;;;3.70;1.13;;;18.20;99.90;;;;;;4995454;28;20096;-83
2023/06/30 07:32:23;;;;;;;4.30;1.35;;;18.10;99.90;;;;;;4994110;28;20101;-81
2023/06/30 07:34:51;;;;;;;5.18;1.35;;;18.20;99.90;;;;;;4978125;28;20508;-80
2023/06/30 07:37:18;;;;;;;3.88;1.40;;;18.10;99.90;;;;;;4995707;28;20050;-81
2023/06/30 07:39:44;;;;;;;8.13;1.50;;;18.10;99.90;;;;;;4994541;28;20073;-84
2023/06/30 07:42:11;;;;;;;5.72;1.60;;;18.10;99.90;;;;;;4978306;28;20417;-85
2023/06/30 07:44:38;;;;;;;15.32;1.70;;;18.10;99.90;;;;;;4993517;28;20034;-83
2023/06/30 07:47:05;;;;;;;6.55;1.30;;;18.20;99.90;;;;;;4995540;28;20050;-85
2023/06/30 07:49:31;;;;;;;5.82;1.20;;;18.20;99.90;;;;;;4995093;28;20104;-83
2023/06/30 07:51:58;;;;;;;5.50;2.08;;;18.30;99.90;;;;;;4994792;28;20101;-83
2023/06/30 07:54:25;;;;;;;6.70;1.30;;;18.40;99.90;;;;;;4995165;28;20042;-81
2023/06/30 07:56:52;;;;;;;7.38;1.42;;;18.30;99.90;;;;;;4995318;28;20428;-83
2023/06/30 07:59:18;;;;;;;5.65;1.40;;;18.40;99.90;;;;;;4977633;28;20042;-82
2023/06/30 08:01:45;;;;;;;5.43;1.30;;;18.50;99.90;;;;;;4995868;28;20438;-82
2023/06/30 08:04:12;;;;;;;4.90;1.50;;;18.50;99.90;;;;;;4992826;28;20042;-82
2023/06/30 08:06:39;;;;;;;4.47;1.40;;;18.70;99.90;;;;;;4994028;28;20039;-81
2023/06/30 08:09:06;;;;;;;4.65;1.40;;;18.90;99.90;;;;;;4994793;28;20050;-84
2023/06/30 08:11:33;;;;;;;8.02;1.40;;;19.00;99.90;;;;;;4993223;28;20047;-81
2023/06/30 08:14:01;;;;;;;4.22;1.42;;;19.00;99.90;;;;;;4983194;28;20108;-80
2023/06/30 08:16:29;;;;;;;4.35;1.42;;;18.90;99.90;;;;;;4998697;28;20046;-80
2023/06/30 08:18:56;;;;;;;3.88;1.38;;;19.10;99.90;;;;;;4998235;28;20044;-79
2023/06/30 08:21:23;;;;;;;4.75;1.63;;;19.30;99.90;;;;;;4996890;28;20038;-80
2023/06/30 08:23:50;;;;;;;4.90;1.30;;;19.70;99.90;;;;;;4978696;28;20630;-80
2023/06/30 08:26:18;;;;;;;3.00;1.20;;;19.90;99.90;;;;;;4961944;28;20106;-80
2023/06/30 08:28:45;;;;;;;5.05;1.38;;;20.10;99.90;;;;;;4979077;28;20043;-79
2023/06/30 08:31:12;;;;;;;5.55;1.50;;;20.10;99.90;;;;;;4978265;28;20433;-79
2023/06/30 08:33:39;;;;;;;4.70;1.50;;;20.20;99.90;;;;;;4978975;28;20122;-80
2023/06/30 08:36:07;;;;;;;6.85;1.40;;;20.20;99.90;;;;;;4988132;28;20556;-79
2023/06/30 08:38:33;;;;;;;5.70;1.27;;;19.90;99.90;;;;;;4997294;28;20073;-83
2023/06/30 08:41:02;;;;;;;6.75;1.55;;;19.80;99.90;;;;;;4998184;28;20042;-80
2023/06/30 08:43:29;;;;;;;6.47;1.50;;;19.80;99.90;;;;;;4997850;28;20389;-83
2023/06/30 08:45:56;;;;;;;5.03;1.70;;;19.90;99.90;;;;;;4995442;28;20528;-81
2023/06/30 08:48:23;;;;;;;4.07;1.15;;;19.90;99.90;;;;;;4968764;28;20051;-81
2023/06/30 08:50:50;;;;;;;5.05;1.33;;;19.80;99.90;;;;;;4977492;28;20572;-82
2023/06/30 08:53:16;;;;;;;6.40;1.50;;;19.80;99.90;;;;;;4978304;28;20042;-81
2023/06/30 08:55:45;;;;;;;4.22;1.30;;;19.50;99.90;;;;;;4994709;28;20054;-80
2023/06/30 08:58:12;;;;;;;7.65;1.55;;;19.60;99.90;;;;;;4979592;28;20457;-79
2023/06/30 09:00:51;;;;;;;6.20;1.50;;;19.60;99.90;;;;;;4994980;28;20133;-81
2023/06/30 09:03:18;;;;;;;7.40;1.65;;;19.70;99.90;;;;;;4979824;28;20853;-83
2023/06/30 09:08:34;;;;;;;5.38;1.70;;;19.80;99.90;;;;;;4997573;28;20058;-84
2023/06/30 09:11:04;;;;;;;4.88;1.38;;;19.50;99.90;;;;;;4996763;28;20046;-82
2023/06/30 09:13:30;;;;;;;11.05;1.75;;;19.50;99.90;;;;;;4997256;28;20061;-82
2023/06/30 09:15:58;;;;;;;5.03;1.52;;;19.70;99.90;;;;;;4980330;28;20128;-83
2023/06/30 09:18:25;;;;;;;4.20;1.40;;;19.70;99.90;;;;;;4996413;28;20039;-80
2023/06/30 09:20:52;;;;;;;9.18;1.90;;;19.50;99.90;;;;;;4996710;28;20043;-80
2023/06/30 09:23:18;;;;;;;7.18;1.60;;;19.60;99.90;;;;;;4997186;28;20862;-79
2023/06/30 09:25:46;;;;;;;4.28;1.60;;;19.80;99.90;;;;;;4995012;28;20046;-80
2023/06/30 09:28:14;;;;;;;8.30;1.77;;;19.90;99.90;;;;;;4996534;28;20446;-84
2023/06/30 09:30:41;;;;;;;5.97;1.40;;;19.50;99.90;;;;;;4996428;28;20048;-82
2023/06/30 09:33:08;;;;;;;3.75;1.30;;;19.50;99.90;;;;;;4996133;28;20054;-83
2023/06/30 09:35:38;;;;;;;5.43;1.40;;;19.50;99.90;;;;;;4996487;28;20448;-81
2023/06/30 09:38:05;;;;;;;6.15;1.30;;;19.80;99.90;;;;;;4979310;28;20046;-82
2023/06/30 09:40:31;;;;;;;8.43;1.63;;;20.10;99.90;;;;;;4997357;28;20069;-81
2023/06/30 09:42:58;;;;;;;6.03;1.70;;;20.30;99.90;;;;;;4996764;28;20104;-83
2023/06/30 09:45:25;;;;;;;6.40;1.50;;;20.40;99.90;;;;;;4979259;28;20042;-83
2023/06/30 09:47:52;;;;;;;5.90;1.35;;;20.70;99.90;;;;;;4996956;28;20105;-84
2023/06/30 09:50:19;;;;;;;5.20;1.50;;;21.00;99.90;;;;;;4997485;28;20104;-83
2023/06/30 09:52:46;;;;;;;4.97;1.50;;;21.00;99.90;;;;;;4995923;28;20375;-82
2023/06/30 09:55:12;;;;;;;6.05;1.67;;;21.30;99.90;;;;;;4979243;28;20065;-86
2023/06/30 09:57:43;;;;;;;7.10;2.17;;;21.60;99.90;;;;;;4963114;28;20081;-88
2023/06/30 10:00:10;;;;;;;4.78;1.50;;;21.70;99.90;;;;;;4963690;28;20417;-83
2023/06/30 10:02:55;;;;;;;5.75;1.33;;;21.70;99.90;;;;;;4979427;28;20533;-84
2023/06/30 10:05:22;;;;;;;9.82;1.60;;;21.60;99.90;;;;;;4995019;28;20048;-88
2023/06/30 10:07:49;;;;;;;7.15;1.60;;;21.60;99.90;;;;;;4979794;28;20050;-86
2023/06/30 10:10:15;;;;;;;12.02;1.92;;;22.00;99.90;;;;;;5009020;28;20058;-84
2023/06/30 10:12:43;;;;;;;8.50;2.22;;;22.00;99.90;;;;;;4995612;28;20421;-83
2023/06/30 10:15:10;;;;;;;8.63;1.90;;;22.00;99.90;;;;;;4996214;28;20035;-80
2023/06/30 10:17:37;;;;;;;7.50;2.00;;;22.20;99.90;;;;;;4994446;28;20128;-80
2023/06/30 10:20:04;;;;;;;8.10;2.00;;;22.10;99.90;;;;;;4995298;28;20050;-80
2023/06/30 10:22:30;;;;;;;10.27;1.75;;;22.10;99.90;;;;;;4995223;28;20034;-80
2023/06/30 10:24:57;;;;;;;7.55;1.80;;;21.60;99.90;;;;;;4994422;28;20035;-81
2023/06/30 10:27:24;;;;;;;7.82;2.00;;;21.60;99.90;;;;;;4994122;28;20847;-81
2023/06/30 10:29:51;;;;;;;6.95;1.83;;;21.80;99.90;;;;;;4994184;28;20048;-81
2023/06/30 10:32:20;;;;;;;6.03;1.70;;;22.20;99.90;;;;;;4993410;28;20054;-84
2023/06/30 10:34:47;;;;;;;8.43;2.17;;;22.00;99.90;;;;;;4995142;28;20057;-83
2023/06/30 10:37:14;;;;;;;7.47;2.10;;;22.00;99.90;;;;;;4994648;28;20362;-81
2023/06/30 10:39:43;;;;;;;6.50;2.03;;;22.10;99.90;;;;;;4995097;28;20548;-80
2023/06/30 10:42:09;;;;;;;10.77;1.92;;;22.30;99.90;;;;;;4995911;28;20038;-82
2023/06/30 10:44:37;;;;;;;6.63;1.83;;;22.40;99.90;;;;;;4995080;28;20126;-83
2023/06/30 10:47:04;;;;;;;7.32;2.10;;;22.30;99.90;;;;;;4992280;28;20101;-81
2023/06/30 10:49:31;;;;;;;10.02;2.00;;;22.40;99.90;;;;;;4976299;28;20377;-82
2023/06/30 10:51:58;;;;;;;8.98;1.90;;;22.20;99.90;;;;;;4975345;28;20054;-80
2023/06/30 10:54:25;;;;;;;8.10;2.15;;;22.40;99.90;;;;;;4975997;28;20042;-80
2023/06/30 10:56:52;;;;;;;7.07;1.83;;;22.30;99.90;;;;;;4986361;28;20053;-82
2023/06/30 10:59:19;;;;;;;6.57;1.80;;;22.20;99.90;;;;;;4995151;28;20042;-81
2023/06/30 11:01:45;;;;;;;10.55;1.90;;;22.50;99.90;;;;;;4995910;28;20038;-82
2023/06/30 11:04:12;;;;;;;8.23;2.13;;;22.20;99.90;;;;;;4994595;28;20076;-81
2023/06/30 11:06:39;;;;;;;8.05;1.95;;;22.10;99.90;;;;;;4995679;28;20077;-82
2023/06/30 11:09:06;;;;;;;6.00;1.98;;;21.70;99.90;;;;;;4995641;28;20060;-84
2023/06/30 11:11:33;;;;;;;8.80;2.30;;;21.30;99.90;;;;;;4994768;28;20043;-81
2023/06/30 11:13:59;;;;;;;12.90;2.90;;;21.50;99.90;;;;;;4995439;28;20453;-81
2023/06/30 11:16:26;;;;;;;7.90;2.30;;;21.50;99.90;;;;;;4995540;28;20042;-84
2023/06/30 11:18:53;;;;;;;17.95;2.70;;;21.70;99.90;;;;;;4994504;28;20044;-84
2023/06/30 11:21:20;;;;;;;10.52;2.22;;;21.90;99.90;;;;;;4994625;28;20046;-83
2023/06/30 11:23:46;;;;;;;7.47;2.00;;;22.10;99.90;;;;;;4995340;28;20070;-83
2023/06/30 11:26:14;;;;;;;7.78;2.38;;;22.20;99.90;;;;;;4994900;28;20081;-81
2023/06/30 11:28:42;;;;;;;11.13;3.83;;;22.00;99.90;;;;;;4994621;28;20046;-82
2023/06/30 11:31:10;;;;;;;8.05;2.15;;;22.00;99.90;;;;;;4993557;28;20053;-83
2023/06/30 11:33:37;;;;;;;7.50;1.95;;;21.90;99.90;;;;;;4988252;28;20050;-83
2023/06/30 11:36:05;;;;;;;13.25;2.00;;;21.60;99.90;;;;;;4988985;28;20062;-79
2023/06/30 11:38:32;;;;;;;9.93;1.98;;;21.50;99.90;;;;;;4982599;28;20061;-82
2023/06/30 11:41:00;;;;;;;5.18;2.08;;;21.60;99.90;;;;;;4980910;28;20101;-81
2023/06/30 11:43:27;;;;;;;6.35;1.90;;;21.70;99.90;;;;;;4975725;28;20121;-84
2023/06/30 11:45:54;;;;;;;6.50;2.10;;;21.60;99.90;;;;;;4983565;28;20045;-82
2023/06/30 11:48:21;;;;;;;10.00;1.90;;;21.40;99.90;;;;;;4964897;28;20125;-82
2023/06/30 11:50:48;;;;;;;13.23;1.95;;;21.30;99.90;;;;;;4961936;28;20046;-82
2023/06/30 11:53:15;;;;;;;6.47;1.88;;;21.30;99.90;;;;;;4979903;28;20126;-84
2023/06/30 11:55:43;;;;;;;9.55;2.50;;;21.30;99.90;;;;;;4981944;28;20053;-81
2023/06/30 11:58:10;;;;;;;8.15;2.00;;;21.00;99.90;;;;;;4981296;28;20086;-83
2023/06/30 12:00:37;;;;;;;7.53;1.95;;;20.90;99.90;;;;;;4998554;28;20046;-82
2023/06/30 12:03:04;;;;;;;9.68;1.80;;;20.90;99.90;;;;;;4998570;28;20077;-82
2023/06/30 12:05:33;;;;;;;7.15;1.95;;;20.80;99.90;;;;;;4997509;28;20507;-83
2023/06/30 12:08:00;;;;;;;8.00;2.08;;;20.70;99.90;;;;;;4999165;28;20081;-82
2023/06/30 12:10:26;;;;;;;9.57;3.03;;;20.80;99.90;;;;;;4998975;28;20124;-83
2023/06/30 12:12:56;;;;;;;10.15;2.17;;;21.00;99.90;;;;;;4997566;28;20038;-84
2023/06/30 12:18:09;;;;;;;10.20;2.08;;;20.80;99.90;;;;;;4978944;28;20058;-82
2023/06/30 12:20:36;;;;;;;6.65;2.35;;;20.60;99.90;;;;;;4962291;28;20141;-83
2023/06/30 12:23:03;;;;;;;8.35;2.08;;;20.40;99.90;;;;;;4979181;28;20039;-85
2023/06/30 12:25:33;;;;;;;12.07;1.95;;;20.50;99.90;;;;;;4978636;28;20039;-83
2023/06/30 12:28:00;;;;;;;10.15;2.40;;;20.70;99.90;;;;;;4962378;28;20061;-82
2023/06/30 12:30:27;;;;;;;6.70;2.00;;;20.60;99.90;;;;;;4962453;28;20417;-85
2023/06/30 12:32:54;;;;;;;9.43;2.35;;;20.90;99.90;;;;;;4978239;28;20050;-81
2023/06/30 12:35:21;;;;;;;8.63;1.92;;;21.20;99.90;;;;;;4979334;28;20053;-83
2023/06/30 12:37:48;;;;;;;9.10;2.28;;;21.30;99.90;;;;;;4978342;28;20130;-81
2023/06/30 12:40:15;;;;;;;7.75;2.22;;;21.40;99.90;;;;;;4962059;28;20413;-81
2023/06/30 12:42:41;;;;;;;7.07;2.03;;;21.30;99.90;;;;;;4978756;28;20053;-83
2023/06/30 12:45:10;;;;;;;7.60;1.95;;;21.30;99.90;;;;;;4978114;28;20478;-81
2023/06/30 12:47:37;;;;;;;6.45;1.80;;;21.30;99.90;;;;;;4979213;28;20098;-85
2023/06/30 12:50:04;;;;;;;10.85;1.98;;;21.10;99.90;;;;;;4978836;28;20043;-84
2023/06/30 12:52:30;;;;;;;8.13;1.88;;;20.70;99.90;;;;;;4977940;28;20046;-80
2023/06/30 12:54:58;;;;;;;5.75;2.00;;;20.70;99.90;;;;;;4961594;28;20445;-84
2023/06/30 12:57:25;;;;;;;8.10;1.92;;;20.80;99.90;;;;;;4978263;28;20101;-83
2023/06/30 12:59:52;;;;;;;6.50;1.60;;;20.60;99.90;;;;;;4978416;28;20072;-81
2023/06/30 13:02:18;;;;;;;5.28;1.60;;;20.40;99.90;;;;;;4978527;28;20046;-80
2023/06/30 13:04:45;;;;;;;6.05;1.58;;;20.10;99.90;;;;;;4977397;28;20430;-81
2023/06/30 13:07:12;;;;;;;8.90;2.00;;;20.10;99.90;;;;;;4961841;28;20418;-80